sensor_id;sensor_type;location;lat;lon;timestamp;P1;durP1;ratioP1;P2;durP2;ratioP2
2161;SDS011;1087;50.226;8.682;2023-03-01T00:01:49;11.93;;;10.73;;
2161;SDS011;1087;50.226;8.682;2023-03-01T00:04:15;13.40;;;11.47;;
2161;SDS011;1087;50.226;8.682;2023-03-01T00:06:42;17.87;;;12.17;;
2161;SDS011;1087;50.226;8.682;2023-03-01T00:09:10;13.00;;;11.37;;
2161;SDS011;1087;50.226;8.682;2023-03-01T00:11:36;13.20;;;11.80;;
2161;SDS011;1087;50.226;8.682;2023-03-01T00:14:02;14.10;;;11.03;;
2161;SDS011;1087;50.226;8.682;2023-03-01T00:16:33;15.13;;;10.93;;
2161;SDS011;1087;50.226;8.682;2023-03-01T00:19:01;15.00;;;11.50;;
2161;SDS011;1087;50.226;8.682;2023-03-01T00:21:27;17.10;;;11.03;;
2161;SDS011;1087;50.226;8.682;2023-03-01T00:23:53;13.67;;;10.33;;
2161;SDS011;1087;50.226;8.682;2023-03-01T00:26:20;13.90;;;11.30;;
2161;SDS011;1087;50.226;8.682;2023-03-01T00:28:49;13.60;;;10.07;;
2161;SDS011;1087;50.226;8.682;2023-03-01T00:31:16;16.57;;;11.93;;
2161;SDS011;1087;50.226;8.682;2023-03-01T00:33:43;15.70;;;10.20;;
2161;SDS011;1087;50.226;8.682;2023-03-01T00:36:10;12.93;;;11.00;;
2161;SDS011;1087;50.226;8.682;2023-03-01T00:38:37;13.20;;;11.50;;
2161;SDS011;1087;50.226;8.682;2023-03-01T00:41:05;12.53;;;10.60;;
2161;SDS011;1087;50.226;8.682;2023-03-01T00:43:31;13.90;;;12.23;;
2161;SDS011;1087;50.226;8.682;2023-03-01T00:46:01;14.40;;;10.97;;
2161;SDS011;1087;50.226;8.682;2023-03-01T00:48:31;14.10;;;12.27;;
2161;SDS011;1087;50.226;8.682;2023-03-01T00:51:03;15.83;;;11.60;;
2161;SDS011;1087;50.226;8.682;2023-03-01T00:53:30;13.00;;;11.33;;
2161;SDS011;1087;50.226;8.682;2023-03-01T00:55:56;13.70;;;11.30;;
2161;SDS011;1087;50.226;8.682;2023-03-01T00:58:22;16.47;;;12.30;;
2161;SDS011;1087;50.226;8.682;2023-03-01T01:00:48;15.03;;;11.47;;
2161;SDS011;1087;50.226;8.682;2023-03-01T01:03:14;13.70;;;12.33;;
2161;SDS011;1087;50.226;8.682;2023-03-01T01:05:41;16.90;;;12.10;;
2161;SDS011;1087;50.226;8.682;2023-03-01T01:08:06;15.40;;;11.53;;
2161;SDS011;1087;50.226;8.682;2023-03-01T01:10:33;13.17;;;11.10;;
2161;SDS011;1087;50.226;8.682;2023-03-01T01:12:59;11.80;;;10.60;;
2161;SDS011;1087;50.226;8.682;2023-03-01T01:15:25;14.10;;;12.00;;
2161;SDS011;1087;50.226;8.682;2023-03-01T01:17:50;12.93;;;11.40;;
2161;SDS011;1087;50.226;8.682;2023-03-01T01:20:16;14.17;;;11.23;;
2161;SDS011;1087;50.226;8.682;2023-03-01T01:22:42;17.97;;;12.40;;
2161;SDS011;1087;50.226;8.682;2023-03-01T01:25:07;14.37;;;11.30;;
2161;SDS011;1087;50.226;8.682;2023-03-01T01:27:33;14.40;;;12.13;;
2161;SDS011;1087;50.226;8.682;2023-03-01T01:29:59;16.37;;;13.67;;
2161;SDS011;1087;50.226;8.682;2023-03-01T01:32:24;13.20;;;11.80;;
2161;SDS011;1087;50.226;8.682;2023-03-01T01:34:50;14.77;;;12.50;;
2161;SDS011;1087;50.226;8.682;2023-03-01T01:37:15;16.23;;;12.67;;
2161;SDS011;1087;50.226;8.682;2023-03-01T01:39:41;13.37;;;11.80;;
2161;SDS011;1087;50.226;8.682;2023-03-01T01:42:09;14.00;;;12.60;;
2161;SDS011;1087;50.226;8.682;2023-03-01T01:44:40;15.23;;;12.63;;
2161;SDS011;1087;50.226;8.682;2023-03-01T01:47:12;16.67;;;11.50;;
2161;SDS011;1087;50.226;8.682;2023-03-01T01:54:59;15.10;;;11.83;;
2161;SDS011;1087;50.226;8.682;2023-03-01T01:57:36;14.37;;;12.00;;
2161;SDS011;1087;50.226;8.682;2023-03-01T02:00:11;13.67;;;11.80;;
2161;SDS011;1087;50.226;8.682;2023-03-01T02:02:40;15.50;;;12.17;;
2161;SDS011;1087;50.226;8.682;2023-03-01T02:05:12;18.10;;;12.60;;
2161;SDS011;1087;50.226;8.682;2023-03-01T02:07:38;13.47;;;11.90;;
2161;SDS011;1087;50.226;8.682;2023-03-01T02:10:06;14.93;;;11.97;;
2161;SDS011;1087;50.226;8.682;2023-03-01T02:12:31;15.47;;;13.67;;
2161;SDS011;1087;50.226;8.682;2023-03-01T02:14:58;15.40;;;12.50;;
2161;SDS011;1087;50.226;8.682;2023-03-01T02:17:23;15.80;;;12.57;;
2161;SDS011;1087;50.226;8.682;2023-03-01T02:20:12;15.20;;;12.57;;
2161;SDS011;1087;50.226;8.682;2023-03-01T02:22:48;14.00;;;11.27;;
2161;SDS011;1087;50.226;8.682;2023-03-01T02:27:49;16.40;;;13.53;;
2161;SDS011;1087;50.226;8.682;2023-03-01T02:30:24;17.53;;;13.47;;
2161;SDS011;1087;50.226;8.682;2023-03-01T02:32:51;17.03;;;13.10;;
2161;SDS011;1087;50.226;8.682;2023-03-01T02:35:17;19.57;;;14.07;;
2161;SDS011;1087;50.226;8.682;2023-03-01T02:37:44;19.10;;;13.77;;
2161;SDS011;1087;50.226;8.682;2023-03-01T02:40:11;17.40;;;13.20;;
2161;SDS011;1087;50.226;8.682;2023-03-01T02:43:03;15.87;;;13.80;;
2161;SDS011;1087;50.226;8.682;2023-03-01T02:45:29;13.30;;;11.90;;
2161;SDS011;1087;50.226;8.682;2023-03-01T02:47:55;14.47;;;12.87;;
2161;SDS011;1087;50.226;8.682;2023-03-01T02:50:25;17.60;;;13.20;;
2161;SDS011;1087;50.226;8.682;2023-03-01T02:53:25;15.70;;;14.10;;
2161;SDS011;1087;50.226;8.682;2023-03-01T02:55:58;16.80;;;12.70;;
2161;SDS011;1087;50.226;8.682;2023-03-01T02:58:24;15.70;;;14.07;;
2161;SDS011;1087;50.226;8.682;2023-03-01T03:00:50;17.33;;;13.97;;
2161;SDS011;1087;50.226;8.682;2023-03-01T03:03:19;16.00;;;13.37;;
2161;SDS011;1087;50.226;8.682;2023-03-01T03:05:45;14.90;;;12.50;;
2161;SDS011;1087;50.226;8.682;2023-03-01T03:08:12;17.47;;;13.67;;
2161;SDS011;1087;50.226;8.682;2023-03-01T03:10:39;15.23;;;13.23;;
2161;SDS011;1087;50.226;8.682;2023-03-01T03:13:16;16.37;;;12.93;;
2161;SDS011;1087;50.226;8.682;2023-03-01T03:15:43;15.63;;;12.80;;
2161;SDS011;1087;50.226;8.682;2023-03-01T03:18:10;18.60;;;14.00;;
2161;SDS011;1087;50.226;8.682;2023-03-01T03:20:38;18.63;;;14.57;;
2161;SDS011;1087;50.226;8.682;2023-03-01T03:23:05;19.20;;;14.03;;
2161;SDS011;1087;50.226;8.682;2023-03-01T03:25:30;16.63;;;13.67;;
2161;SDS011;1087;50.226;8.682;2023-03-01T03:27:56;18.57;;;14.30;;
2161;SDS011;1087;50.226;8.682;2023-03-01T03:30:26;17.70;;;12.90;;
2161;SDS011;1087;50.226;8.682;2023-03-01T03:32:54;16.97;;;13.73;;
2161;SDS011;1087;50.226;8.682;2023-03-01T03:35:25;16.20;;;13.53;;
2161;SDS011;1087;50.226;8.682;2023-03-01T03:37:54;20.37;;;13.93;;
2161;SDS011;1087;50.226;8.682;2023-03-01T03:40:27;15.30;;;12.73;;
2161;SDS011;1087;50.226;8.682;2023-03-01T03:43:13;19.87;;;14.13;;
2161;SDS011;1087;50.226;8.682;2023-03-01T03:45:40;16.67;;;13.20;;
2161;SDS011;1087;50.226;8.682;2023-03-01T03:48:07;19.37;;;14.83;;
2161;SDS011;1087;50.226;8.682;2023-03-01T03:50:34;15.47;;;13.83;;
2161;SDS011;1087;50.226;8.682;2023-03-01T03:53:00;19.07;;;15.17;;
2161;SDS011;1087;50.226;8.682;2023-03-01T03:55:27;20.63;;;13.23;;
2161;SDS011;1087;50.226;8.682;2023-03-01T03:57:56;19.93;;;14.93;;
2161;SDS011;1087;50.226;8.682;2023-03-01T04:00:26;19.33;;;14.50;;
2161;SDS011;1087;50.226;8.682;2023-03-01T04:02:51;17.07;;;13.23;;
2161;SDS011;1087;50.226;8.682;2023-03-01T04:05:21;18.23;;;13.90;;
2161;SDS011;1087;50.226;8.682;2023-03-01T04:07:47;16.67;;;14.87;;
2161;SDS011;1087;50.226;8.682;2023-03-01T04:10:14;19.63;;;14.20;;
2161;SDS011;1087;50.226;8.682;2023-03-01T04:12:42;22.20;;;13.73;;
2161;SDS011;1087;50.226;8.682;2023-03-01T04:15:08;19.23;;;14.27;;
2161;SDS011;1087;50.226;8.682;2023-03-01T04:17:39;16.40;;;13.83;;
2161;SDS011;1087;50.226;8.682;2023-03-01T04:20:09;23.03;;;15.00;;
2161;SDS011;1087;50.226;8.682;2023-03-01T04:22:37;20.47;;;14.73;;
2161;SDS011;1087;50.226;8.682;2023-03-01T04:25:03;18.27;;;13.33;;
2161;SDS011;1087;50.226;8.682;2023-03-01T04:27:30;18.10;;;13.50;;
2161;SDS011;1087;50.226;8.682;2023-03-01T04:30:00;20.70;;;14.33;;
2161;SDS011;1087;50.226;8.682;2023-03-01T04:32:26;15.20;;;13.47;;
2161;SDS011;1087;50.226;8.682;2023-03-01T04:34:52;18.07;;;14.30;;
2161;SDS011;1087;50.226;8.682;2023-03-01T04:37:17;18.50;;;13.30;;
2161;SDS011;1087;50.226;8.682;2023-03-01T04:39:43;16.23;;;13.73;;
2161;SDS011;1087;50.226;8.682;2023-03-01T04:42:10;18.40;;;14.57;;
2161;SDS011;1087;50.226;8.682;2023-03-01T04:44:44;19.70;;;15.20;;
2161;SDS011;1087;50.226;8.682;2023-03-01T04:47:10;23.70;;;16.77;;
2161;SDS011;1087;50.226;8.682;2023-03-01T04:49:36;20.00;;;15.57;;
2161;SDS011;1087;50.226;8.682;2023-03-01T04:52:02;20.50;;;14.37;;
2161;SDS011;1087;50.226;8.682;2023-03-01T04:54:29;18.47;;;14.63;;
2161;SDS011;1087;50.226;8.682;2023-03-01T04:56:55;21.90;;;15.87;;
2161;SDS011;1087;50.226;8.682;2023-03-01T04:59:21;18.30;;;15.33;;
2161;SDS011;1087;50.226;8.682;2023-03-01T05:01:47;17.63;;;13.60;;
2161;SDS011;1087;50.226;8.682;2023-03-01T05:04:14;17.20;;;14.90;;
2161;SDS011;1087;50.226;8.682;2023-03-01T05:06:39;19.50;;;15.60;;
2161;SDS011;1087;50.226;8.682;2023-03-01T05:09:05;19.27;;;13.50;;
2161;SDS011;1087;50.226;8.682;2023-03-01T05:11:31;18.43;;;14.47;;
2161;SDS011;1087;50.226;8.682;2023-03-01T05:14:00;16.60;;;13.13;;
2161;SDS011;1087;50.226;8.682;2023-03-01T05:16:29;19.90;;;15.60;;
2161;SDS011;1087;50.226;8.682;2023-03-01T05:18:56;19.60;;;15.03;;
2161;SDS011;1087;50.226;8.682;2023-03-01T05:21:22;19.20;;;14.53;;
2161;SDS011;1087;50.226;8.682;2023-03-01T05:23:48;20.67;;;14.50;;
2161;SDS011;1087;50.226;8.682;2023-03-01T05:26:13;19.50;;;14.63;;
2161;SDS011;1087;50.226;8.682;2023-03-01T05:28:40;20.27;;;13.70;;
2161;SDS011;1087;50.226;8.682;2023-03-01T05:31:06;16.83;;;13.40;;
2161;SDS011;1087;50.226;8.682;2023-03-01T05:33:35;19.07;;;13.50;;
2161;SDS011;1087;50.226;8.682;2023-03-01T05:36:02;20.20;;;14.20;;
2161;SDS011;1087;50.226;8.682;2023-03-01T05:38:28;18.60;;;14.00;;
2161;SDS011;1087;50.226;8.682;2023-03-01T05:40:53;19.53;;;13.40;;
2161;SDS011;1087;50.226;8.682;2023-03-01T05:43:19;19.80;;;14.50;;
2161;SDS011;1087;50.226;8.682;2023-03-01T05:45:44;21.53;;;14.20;;
2161;SDS011;1087;50.226;8.682;2023-03-01T05:48:10;18.53;;;14.97;;
2161;SDS011;1087;50.226;8.682;2023-03-01T05:50:37;17.20;;;13.40;;
2161;SDS011;1087;50.226;8.682;2023-03-01T05:53:06;18.40;;;14.00;;
2161;SDS011;1087;50.226;8.682;2023-03-01T05:55:34;18.93;;;14.17;;
2161;SDS011;1087;50.226;8.682;2023-03-01T05:58:01;18.60;;;14.30;;
2161;SDS011;1087;50.226;8.682;2023-03-01T06:00:28;18.43;;;14.17;;
2161;SDS011;1087;50.226;8.682;2023-03-01T06:02:55;17.20;;;14.60;;
2161;SDS011;1087;50.226;8.682;2023-03-01T06:05:21;19.83;;;14.50;;
2161;SDS011;1087;50.226;8.682;2023-03-01T06:07:47;15.70;;;14.10;;
2161;SDS011;1087;50.226;8.682;2023-03-01T06:10:13;16.93;;;14.57;;
2161;SDS011;1087;50.226;8.682;2023-03-01T06:12:40;19.17;;;14.20;;
2161;SDS011;1087;50.226;8.682;2023-03-01T06:15:07;18.70;;;14.03;;
2161;SDS011;1087;50.226;8.682;2023-03-01T06:17:37;21.33;;;15.50;;
2161;SDS011;1087;50.226;8.682;2023-03-01T06:20:04;20.60;;;14.60;;
2161;SDS011;1087;50.226;8.682;2023-03-01T06:22:32;15.23;;;13.20;;
2161;SDS011;1087;50.226;8.682;2023-03-01T06:24:57;20.23;;;14.30;;
2161;SDS011;1087;50.226;8.682;2023-03-01T06:27:23;19.93;;;14.67;;
2161;SDS011;1087;50.226;8.682;2023-03-01T06:29:48;18.03;;;13.20;;
2161;SDS011;1087;50.226;8.682;2023-03-01T06:32:14;20.23;;;14.27;;
2161;SDS011;1087;50.226;8.682;2023-03-01T06:34:39;18.17;;;14.60;;
2161;SDS011;1087;50.226;8.682;2023-03-01T06:37:05;18.73;;;14.17;;
2161;SDS011;1087;50.226;8.682;2023-03-01T06:39:32;20.47;;;14.87;;
2161;SDS011;1087;50.226;8.682;2023-03-01T06:41:57;20.23;;;15.53;;
2161;SDS011;1087;50.226;8.682;2023-03-01T06:44:23;19.07;;;17.07;;
2161;SDS011;1087;50.226;8.682;2023-03-01T06:46:49;19.93;;;14.60;;
2161;SDS011;1087;50.226;8.682;2023-03-01T06:49:14;19.70;;;14.80;;
2161;SDS011;1087;50.226;8.682;2023-03-01T06:51:41;18.57;;;15.33;;
2161;SDS011;1087;50.226;8.682;2023-03-01T06:54:06;17.03;;;14.70;;
2161;SDS011;1087;50.226;8.682;2023-03-01T06:56:32;19.10;;;14.37;;
2161;SDS011;1087;50.226;8.682;2023-03-01T06:58:58;18.73;;;14.17;;
2161;SDS011;1087;50.226;8.682;2023-03-01T07:01:23;19.80;;;14.10;;
2161;SDS011;1087;50.226;8.682;2023-03-01T07:03:49;18.80;;;13.73;;
2161;SDS011;1087;50.226;8.682;2023-03-01T07:06:15;20.60;;;14.40;;
2161;SDS011;1087;50.226;8.682;2023-03-01T07:08:40;18.90;;;14.20;;
2161;SDS011;1087;50.226;8.682;2023-03-01T07:11:06;17.97;;;13.90;;
2161;SDS011;1087;50.226;8.682;2023-03-01T07:13:32;20.07;;;14.30;;
2161;SDS011;1087;50.226;8.682;2023-03-01T07:15:57;17.13;;;13.57;;
2161;SDS011;1087;50.226;8.682;2023-03-01T07:18:23;17.40;;;14.20;;
2161;SDS011;1087;50.226;8.682;2023-03-01T07:20:49;18.40;;;14.50;;
2161;SDS011;1087;50.226;8.682;2023-03-01T07:23:14;20.90;;;14.30;;
2161;SDS011;1087;50.226;8.682;2023-03-01T07:25:40;18.30;;;13.90;;
2161;SDS011;1087;50.226;8.682;2023-03-01T07:28:05;20.60;;;15.13;;
2161;SDS011;1087;50.226;8.682;2023-03-01T07:30:31;20.80;;;14.17;;
2161;SDS011;1087;50.226;8.682;2023-03-01T07:32:57;20.30;;;13.80;;
2161;SDS011;1087;50.226;8.682;2023-03-01T07:35:24;19.67;;;13.60;;
2161;SDS011;1087;50.226;8.682;2023-03-01T07:37:50;23.63;;;15.37;;
2161;SDS011;1087;50.226;8.682;2023-03-01T07:40:16;17.30;;;14.50;;
2161;SDS011;1087;50.226;8.682;2023-03-01T07:42:42;17.33;;;14.97;;
2161;SDS011;1087;50.226;8.682;2023-03-01T07:45:08;17.20;;;14.07;;
2161;SDS011;1087;50.226;8.682;2023-03-01T07:47:34;19.17;;;14.40;;
2161;SDS011;1087;50.226;8.682;2023-03-01T07:50:00;21.17;;;14.90;;
2161;SDS011;1087;50.226;8.682;2023-03-01T07:52:29;24.70;;;17.53;;
2161;SDS011;1087;50.226;8.682;2023-03-01T07:54:55;25.63;;;19.40;;
2161;SDS011;1087;50.226;8.682;2023-03-01T07:57:21;23.37;;;17.00;;
2161;SDS011;1087;50.226;8.682;2023-03-01T07:59:47;19.40;;;15.73;;
2161;SDS011;1087;50.226;8.682;2023-03-01T08:02:12;21.63;;;17.40;;
2161;SDS011;1087;50.226;8.682;2023-03-01T08:04:39;21.70;;;16.33;;
2161;SDS011;1087;50.226;8.682;2023-03-01T08:07:06;19.70;;;16.43;;
2161;SDS011;1087;50.226;8.682;2023-03-01T08:09:31;17.17;;;15.37;;
2161;SDS011;1087;50.226;8.682;2023-03-01T08:11:59;19.47;;;16.30;;
2161;SDS011;1087;50.226;8.682;2023-03-01T08:14:25;19.57;;;15.53;;
2161;SDS011;1087;50.226;8.682;2023-03-01T08:16:50;18.20;;;15.17;;
2161;SDS011;1087;50.226;8.682;2023-03-01T08:19:16;20.03;;;15.60;;
2161;SDS011;1087;50.226;8.682;2023-03-01T08:21:42;22.50;;;17.70;;
2161;SDS011;1087;50.226;8.682;2023-03-01T08:24:07;21.00;;;16.70;;
2161;SDS011;1087;50.226;8.682;2023-03-01T08:26:35;18.13;;;15.03;;
2161;SDS011;1087;50.226;8.682;2023-03-01T08:29:01;20.70;;;15.90;;
2161;SDS011;1087;50.226;8.682;2023-03-01T08:31:36;21.87;;;16.60;;
2161;SDS011;1087;50.226;8.682;2023-03-01T08:34:05;21.93;;;16.93;;
2161;SDS011;1087;50.226;8.682;2023-03-01T08:36:36;20.73;;;15.53;;
2161;SDS011;1087;50.226;8.682;2023-03-01T08:39:03;20.93;;;17.00;;
2161;SDS011;1087;50.226;8.682;2023-03-01T08:41:29;22.97;;;16.10;;
2161;SDS011;1087;50.226;8.682;2023-03-01T08:43:55;20.83;;;15.47;;
2161;SDS011;1087;50.226;8.682;2023-03-01T08:46:32;20.20;;;14.97;;
2161;SDS011;1087;50.226;8.682;2023-03-01T08:49:10;24.23;;;16.73;;
2161;SDS011;1087;50.226;8.682;2023-03-01T08:51:37;19.83;;;15.20;;
2161;SDS011;1087;50.226;8.682;2023-03-01T08:54:03;20.37;;;16.37;;
2161;SDS011;1087;50.226;8.682;2023-03-01T08:56:30;22.67;;;16.10;;
2161;SDS011;1087;50.226;8.682;2023-03-01T08:58:56;19.60;;;14.77;;
2161;SDS011;1087;50.226;8.682;2023-03-01T09:01:22;18.23;;;14.97;;
2161;SDS011;1087;50.226;8.682;2023-03-01T09:03:47;20.00;;;16.03;;
2161;SDS011;1087;50.226;8.682;2023-03-01T09:06:13;18.70;;;14.83;;
2161;SDS011;1087;50.226;8.682;2023-03-01T09:08:40;19.90;;;14.37;;
2161;SDS011;1087;50.226;8.682;2023-03-01T09:11:08;17.97;;;13.43;;
2161;SDS011;1087;50.226;8.682;2023-03-01T09:13:35;18.20;;;14.80;;
2161;SDS011;1087;50.226;8.682;2023-03-01T09:16:02;16.43;;;13.30;;
2161;SDS011;1087;50.226;8.682;2023-03-01T09:18:29;20.80;;;15.73;;
2161;SDS011;1087;50.226;8.682;2023-03-01T09:21:04;19.40;;;14.67;;
2161;SDS011;1087;50.226;8.682;2023-03-01T09:23:41;17.10;;;14.37;;
2161;SDS011;1087;50.226;8.682;2023-03-01T09:26:20;19.07;;;14.77;;
2161;SDS011;1087;50.226;8.682;2023-03-01T09:28:47;17.60;;;13.70;;
2161;SDS011;1087;50.226;8.682;2023-03-01T09:31:14;17.33;;;14.63;;
2161;SDS011;1087;50.226;8.682;2023-03-01T09:33:41;17.83;;;14.10;;
2161;SDS011;1087;50.226;8.682;2023-03-01T09:36:09;20.57;;;15.77;;
2161;SDS011;1087;50.226;8.682;2023-03-01T09:38:37;18.80;;;15.67;;
2161;SDS011;1087;50.226;8.682;2023-03-01T09:41:08;18.97;;;15.07;;
2161;SDS011;1087;50.226;8.682;2023-03-01T09:43:56;18.60;;;14.47;;
2161;SDS011;1087;50.226;8.682;2023-03-01T09:46:28;17.77;;;13.90;;
2161;SDS011;1087;50.226;8.682;2023-03-01T09:49:01;16.53;;;13.73;;
2161;SDS011;1087;50.226;8.682;2023-03-01T09:51:36;18.17;;;14.17;;
2161;SDS011;1087;50.226;8.682;2023-03-01T09:54:02;15.40;;;13.80;;
2161;SDS011;1087;50.226;8.682;2023-03-01T09:56:44;17.70;;;14.80;;
2161;SDS011;1087;50.226;8.682;2023-03-01T10:02:01;20.27;;;15.07;;
2161;SDS011;1087;50.226;8.682;2023-03-01T10:07:21;17.57;;;14.33;;
2161;SDS011;1087;50.226;8.682;2023-03-01T10:10:07;19.10;;;15.87;;
2161;SDS011;1087;50.226;8.682;2023-03-01T10:12:39;19.10;;;14.33;;
2161;SDS011;1087;50.226;8.682;2023-03-01T10:15:10;16.60;;;13.83;;
2161;SDS011;1087;50.226;8.682;2023-03-01T10:17:42;18.20;;;14.23;;
2161;SDS011;1087;50.226;8.682;2023-03-01T10:22:50;19.60;;;15.40;;
2161;SDS011;1087;50.226;8.682;2023-03-01T10:28:13;18.93;;;14.30;;
2161;SDS011;1087;50.226;8.682;2023-03-01T10:30:46;22.43;;;15.80;;
2161;SDS011;1087;50.226;8.682;2023-03-01T10:33:17;18.43;;;14.50;;
2161;SDS011;1087;50.226;8.682;2023-03-01T10:35:45;19.10;;;14.53;;
2161;SDS011;1087;50.226;8.682;2023-03-01T10:38:13;16.83;;;14.60;;
2161;SDS011;1087;50.226;8.682;2023-03-01T10:40:56;18.00;;;14.97;;
2161;SDS011;1087;50.226;8.682;2023-03-01T10:43:26;16.37;;;14.57;;
2161;SDS011;1087;50.226;8.682;2023-03-01T10:45:56;18.70;;;14.40;;
2161;SDS011;1087;50.226;8.682;2023-03-01T10:48:23;16.20;;;14.37;;
2161;SDS011;1087;50.226;8.682;2023-03-01T10:53:27;15.77;;;13.40;;
2161;SDS011;1087;50.226;8.682;2023-03-01T10:56:10;16.07;;;14.30;;
2161;SDS011;1087;50.226;8.682;2023-03-01T10:58:41;17.50;;;14.97;;
2161;SDS011;1087;50.226;8.682;2023-03-01T11:01:25;17.37;;;13.57;;
2161;SDS011;1087;50.226;8.682;2023-03-01T11:06:30;16.03;;;13.10;;
2161;SDS011;1087;50.226;8.682;2023-03-01T11:08:56;19.23;;;14.07;;
2161;SDS011;1087;50.226;8.682;2023-03-01T11:11:34;18.33;;;15.10;;
2161;SDS011;1087;50.226;8.682;2023-03-01T11:14:07;17.70;;;14.40;;
2161;SDS011;1087;50.226;8.682;2023-03-01T11:16:43;16.77;;;14.27;;
2161;SDS011;1087;50.226;8.682;2023-03-01T11:24:42;16.47;;;12.93;;
2161;SDS011;1087;50.226;8.682;2023-03-01T11:27:21;15.83;;;13.13;;
2161;SDS011;1087;50.226;8.682;2023-03-01T11:29:55;14.80;;;12.07;;
2161;SDS011;1087;50.226;8.682;2023-03-01T11:32:28;15.20;;;13.07;;
2161;SDS011;1087;50.226;8.682;2023-03-01T11:35:05;15.47;;;12.67;;
2161;SDS011;1087;50.226;8.682;2023-03-01T11:40:23;15.37;;;12.60;;
2161;SDS011;1087;50.226;8.682;2023-03-01T11:51:41;13.80;;;11.90;;
2161;SDS011;1087;50.226;8.682;2023-03-01T11:57:07;14.90;;;11.63;;
2161;SDS011;1087;50.226;8.682;2023-03-01T12:05:25;14.57;;;11.67;;
2161;SDS011;1087;50.226;8.682;2023-03-01T12:08:11;13.17;;;11.10;;
2161;SDS011;1087;50.226;8.682;2023-03-01T12:25:28;13.43;;;10.60;;
2161;SDS011;1087;50.226;8.682;2023-03-01T12:33:33;12.27;;;10.83;;
2161;SDS011;1087;50.226;8.682;2023-03-01T12:41:46;18.23;;;12.87;;
2161;SDS011;1087;50.226;8.682;2023-03-01T12:49:39;13.30;;;11.90;;
2161;SDS011;1087;50.226;8.682;2023-03-01T12:52:13;14.50;;;11.63;;
2161;SDS011;1087;50.226;8.682;2023-03-01T12:54:47;14.83;;;12.33;;
2161;SDS011;1087;50.226;8.682;2023-03-01T12:57:17;17.40;;;12.80;;
2161;SDS011;1087;50.226;8.682;2023-03-01T13:08:51;16.50;;;13.27;;
2161;SDS011;1087;50.226;8.682;2023-03-01T13:11:31;14.03;;;11.13;;
2161;SDS011;1087;50.226;8.682;2023-03-01T13:14:45;12.90;;;11.10;;
2161;SDS011;1087;50.226;8.682;2023-03-01T13:16:45;12.80;;;11.00;;
2161;SDS011;1087;50.226;8.682;2023-03-01T13:21:57;12.80;;;11.53;;
2161;SDS011;1087;50.226;8.682;2023-03-01T13:24:27;11.63;;;10.47;;
2161;SDS011;1087;50.226;8.682;2023-03-01T13:27:21;12.20;;;10.87;;
2161;SDS011;1087;50.226;8.682;2023-03-01T13:29:48;13.40;;;10.90;;
2161;SDS011;1087;50.226;8.682;2023-03-01T13:32:29;14.47;;;12.53;;
2161;SDS011;1087;50.226;8.682;2023-03-01T13:35:02;20.40;;;12.37;;
2161;SDS011;1087;50.226;8.682;2023-03-01T13:37:38;13.40;;;11.90;;
2161;SDS011;1087;50.226;8.682;2023-03-01T13:40:07;12.43;;;10.80;;
2161;SDS011;1087;50.226;8.682;2023-03-01T13:42:51;12.73;;;11.10;;
2161;SDS011;1087;50.226;8.682;2023-03-01T13:45:19;12.10;;;10.73;;
2161;SDS011;1087;50.226;8.682;2023-03-01T13:48:07;12.97;;;9.77;;
2161;SDS011;1087;50.226;8.682;2023-03-01T13:50:36;11.23;;;9.93;;
2161;SDS011;1087;50.226;8.682;2023-03-01T13:53:21;12.90;;;11.60;;
2161;SDS011;1087;50.226;8.682;2023-03-01T13:55:54;15.10;;;10.37;;
2161;SDS011;1087;50.226;8.682;2023-03-01T13:59:05;13.73;;;11.30;;
2161;SDS011;1087;50.226;8.682;2023-03-01T14:01:20;12.63;;;11.13;;
2161;SDS011;1087;50.226;8.682;2023-03-01T14:04:00;13.07;;;11.67;;
2161;SDS011;1087;50.226;8.682;2023-03-01T14:06:30;12.97;;;11.20;;
2161;SDS011;1087;50.226;8.682;2023-03-01T14:09:02;14.53;;;11.60;;
2161;SDS011;1087;50.226;8.682;2023-03-01T14:20:00;11.77;;;10.67;;
2161;SDS011;1087;50.226;8.682;2023-03-01T14:22:30;16.13;;;10.67;;
2161;SDS011;1087;50.226;8.682;2023-03-01T14:24:59;13.03;;;10.63;;
2161;SDS011;1087;50.226;8.682;2023-03-01T14:27:35;15.73;;;12.67;;
2161;SDS011;1087;50.226;8.682;2023-03-01T14:30:10;10.50;;;9.50;;
2161;SDS011;1087;50.226;8.682;2023-03-01T14:32:39;11.70;;;9.77;;
2161;SDS011;1087;50.226;8.682;2023-03-01T14:35:19;16.23;;;10.80;;
2161;SDS011;1087;50.226;8.682;2023-03-01T14:37:46;13.43;;;10.93;;
2161;SDS011;1087;50.226;8.682;2023-03-01T14:40:48;13.67;;;11.07;;
2161;SDS011;1087;50.226;8.682;2023-03-01T14:43:10;11.20;;;10.00;;
2161;SDS011;1087;50.226;8.682;2023-03-01T14:45:42;14.13;;;9.80;;
2161;SDS011;1087;50.226;8.682;2023-03-01T14:48:13;10.97;;;9.87;;
2161;SDS011;1087;50.226;8.682;2023-03-01T14:50:40;12.70;;;9.37;;
2161;SDS011;1087;50.226;8.682;2023-03-01T14:53:12;11.20;;;10.00;;
2161;SDS011;1087;50.226;8.682;2023-03-01T14:55:46;11.13;;;9.60;;
2161;SDS011;1087;50.226;8.682;2023-03-01T14:58:18;12.23;;;9.60;;
2161;SDS011;1087;50.226;8.682;2023-03-01T15:00:50;10.57;;;9.30;;
2161;SDS011;1087;50.226;8.682;2023-03-01T15:03:23;11.97;;;9.87;;
2161;SDS011;1087;50.226;8.682;2023-03-01T15:05:57;11.77;;;8.73;;
2161;SDS011;1087;50.226;8.682;2023-03-01T15:08:25;10.40;;;8.77;;
2161;SDS011;1087;50.226;8.682;2023-03-01T15:13:24;10.63;;;9.40;;
2161;SDS011;1087;50.226;8.682;2023-03-01T15:15:51;11.10;;;10.03;;
2161;SDS011;1087;50.226;8.682;2023-03-01T15:18:27;12.17;;;10.17;;
2161;SDS011;1087;50.226;8.682;2023-03-01T15:20:54;10.90;;;9.80;;
2161;SDS011;1087;50.226;8.682;2023-03-01T15:23:25;9.93;;;8.93;;
2161;SDS011;1087;50.226;8.682;2023-03-01T15:25:53;10.50;;;8.63;;
2161;SDS011;1087;50.226;8.682;2023-03-01T15:28:24;11.60;;;10.00;;
2161;SDS011;1087;50.226;8.682;2023-03-01T15:30:54;13.33;;;9.37;;
2161;SDS011;1087;50.226;8.682;2023-03-01T15:33:34;10.80;;;8.77;;
2161;SDS011;1087;50.226;8.682;2023-03-01T15:36:02;12.00;;;9.60;;
2161;SDS011;1087;50.226;8.682;2023-03-01T15:38:58;11.23;;;10.13;;
2161;SDS011;1087;50.226;8.682;2023-03-01T15:44:26;14.00;;;10.10;;
2161;SDS011;1087;50.226;8.682;2023-03-01T15:46:53;11.10;;;9.63;;
2161;SDS011;1087;50.226;8.682;2023-03-01T15:51:49;13.80;;;9.00;;
2161;SDS011;1087;50.226;8.682;2023-03-01T15:54:18;11.30;;;9.60;;
2161;SDS011;1087;50.226;8.682;2023-03-01T15:56:46;10.40;;;8.97;;
2161;SDS011;1087;50.226;8.682;2023-03-01T15:59:12;12.10;;;9.50;;
2161;SDS011;1087;50.226;8.682;2023-03-01T16:01:39;11.67;;;9.57;;
2161;SDS011;1087;50.226;8.682;2023-03-01T16:04:09;13.33;;;10.00;;
2161;SDS011;1087;50.226;8.682;2023-03-01T16:06:38;11.33;;;9.73;;
2161;SDS011;1087;50.226;8.682;2023-03-01T16:09:05;11.77;;;9.57;;
2161;SDS011;1087;50.226;8.682;2023-03-01T16:11:30;11.23;;;9.73;;
2161;SDS011;1087;50.226;8.682;2023-03-01T16:13:57;13.00;;;8.90;;
2161;SDS011;1087;50.226;8.682;2023-03-01T16:16:23;12.30;;;10.60;;
2161;SDS011;1087;50.226;8.682;2023-03-01T16:18:49;11.80;;;9.70;;
2161;SDS011;1087;50.226;8.682;2023-03-01T16:21:22;16.00;;;10.80;;
2161;SDS011;1087;50.226;8.682;2023-03-01T16:23:50;12.23;;;9.53;;
2161;SDS011;1087;50.226;8.682;2023-03-01T16:26:16;14.47;;;11.00;;
2161;SDS011;1087;50.226;8.682;2023-03-01T16:28:42;11.97;;;9.77;;
2161;SDS011;1087;50.226;8.682;2023-03-01T16:31:09;14.20;;;10.40;;
2161;SDS011;1087;50.226;8.682;2023-03-01T16:33:35;13.17;;;10.17;;
2161;SDS011;1087;50.226;8.682;2023-03-01T16:36:08;11.75;;;9.90;;
2161;SDS011;1087;50.226;8.682;2023-03-01T16:38:34;11.00;;;9.40;;
2161;SDS011;1087;50.226;8.682;2023-03-01T16:41:00;11.20;;;10.00;;
2161;SDS011;1087;50.226;8.682;2023-03-01T16:43:26;10.80;;;9.30;;
2161;SDS011;1087;50.226;8.682;2023-03-01T16:45:52;9.90;;;8.90;;
2161;SDS011;1087;50.226;8.682;2023-03-01T16:48:17;10.50;;;9.50;;
2161;SDS011;1087;50.226;8.682;2023-03-01T16:50:43;12.33;;;8.80;;
2161;SDS011;1087;50.226;8.682;2023-03-01T16:53:09;10.60;;;8.97;;